Главная страница
METAR-TAF:

METAR-TAF

Аэропорты :

Витмунд, Германия

широта: 53-33N, долгота: 007-40E, высота над уровнем моря: 8 м

Текущие метеонаблюдения

Эта сводка был подготовлена 45 минут назад, в 05:20 UTC
Ветер 14 Узел от южный-юго-западный
Температура 19°C
Влажность 64%
Давление 998 hPa
Видимость 10 км и более
Рассеянная облачность на высоте 14000 фута

METAR: ETNT 210520Z 20014KT 9999 BKN140 19/12 Q0998 BLU BLU

Время: 08:05 (06:05 UTC)

Прогноз

Эта сводка был подготовлена 17 часа и 5 минут назад, в 13:00 UTC
Прогноз действительный с 20-го 14 UTC до 20-го 23 UTC
Ветер 12 Узел от юго-западный с порывами до 25 Узел
Видимость 10 км и более
Рассеянная облачность на высоте 4000 фута
Рассеянная облачность на высоте 25000 фута

TAF: ETNT 201300Z 2014/2023 23012G25KT 9999 NSW BKN040 BKN250 BY ETGL

Метеонаблюдения и прогнозы для более 4000 аэропортов (сводки METAR и TAF).

Имеющиеся станции представлены на карте желтыми и красными точками.

Чтобы увидеть название станции, наведите на нее мышь.

Затем щелкните, чтобы увидеть метеонаблюдения и метеопрогнозы.

Управление картой: чтобы увеличить масштаб, щелкните зеленые кнопки с черным крестиком; чтобы уменьшить масштаб, щелкните зеленую кнопку с тире; для просмотра соседних карт щелкайте зеленые стрелки.


METAR-TAF: